SAWJ/ULA METAR and TAF weather

Enter ICAO airport designator
Station Type Date Time Source
SAWJ METAR 2021/02/10 09:10 UTC NOAA

SAWJ 100910Z 14002KT 0050 FG VV/// 13/13 Q1014


Station Type Date Time Source
SAWJ Decoded METAR 2021/02/10 09:10 UTC NOAA

San Julian Aerodrome, Argentina (SAWJ) 49-19S 067-45W 62M
Feb 10, 2021 - 04:10 AM EST / 2021.02.10 0910 UTC
Wind: from the SE (140 degrees) at 2 MPH (2 KT):0
Visibility: less than 1 mile:0
Sky conditions: obscured
Weather: fog
Temperature: 55 F (13 C)
Dew Point: 55 F (13 C)
Relative Humidity: 100%
Pressure (altimeter): 29.94 in. Hg (1014 hPa)
ob: SAWJ 100910Z 14002KT 0050 FG VV/// 13/13 Q1014
cycle: 9

Station Type Date Time Source
SAWJ TAF 2014/06/25 12:00 UTC NOAA

TAF SAWJ 251100Z 2512/2612 32025G35KT 9999 -RA BKN030 BKN045 TX06/2518Z TN02/2611Z
BECMG 2518/2520 29020G30KT NSW SCT030
BECMG 2609/2611 23020G30KT SHSN OVC015

Example: see airport list